Time;durP1;ratioP1;P1;durP2;ratioP2;P2;SDS_P1;SDS_P2;PMS_P1;PMS_P2;Temp;Humidity;BMP_temperature;BMP_pressure;BME280_temperature;BME280_humidity;BME280_pressure;Samples;Min_cycle;Max_cycle;Signal;HPM_P1;HPM_P2
2021/12/28 00:00:17;;;;;;;95.07;40.42;;;5.40;99.90;;;;;;4835330;29;20495;-82
2021/12/28 00:02:46;;;;;;;83.73;39.27;;;5.40;99.90;;;;;;4834902;29;20148;-82
2021/12/28 00:05:12;;;;;;;96.35;42.25;;;5.50;99.90;;;;;;4830856;29;20067;-82
2021/12/28 00:07:39;;;;;;;85.18;39.78;;;5.60;99.90;;;;;;4853586;29;20570;-82
2021/12/28 00:10:08;;;;;;;102.30;43.10;;;5.60;99.90;;;;;;4836709;29;20583;-82
2021/12/28 00:12:37;;;;;;;94.20;40.72;;;5.70;99.90;;;;;;4828148;29;20041;-82
2021/12/28 00:18:02;;;;;;;103.88;44.50;;;5.80;99.90;;;;;;4822434;29;20050;-82
2021/12/28 00:20:40;;;;;;;123.15;47.00;;;5.80;99.90;;;;;;4827627;29;20045;-82
2021/12/28 00:23:10;;;;;;;113.07;43.88;;;5.80;99.90;;;;;;4844478;29;20569;-82
2021/12/28 00:25:36;;;;;;;117.53;45.05;;;5.90;99.90;;;;;;4846853;29;20052;-82
2021/12/28 00:28:03;;;;;;;114.33;45.43;;;5.90;99.90;;;;;;4831238;29;20045;-82
2021/12/28 00:30:29;;;;;;;137.52;48.80;;;5.90;99.90;;;;;;4820822;29;20045;-83
2021/12/28 00:32:56;;;;;;;129.23;47.83;;;5.90;99.90;;;;;;4821641;29;20045;-82
2021/12/28 00:35:28;;;;;;;129.93;48.60;;;5.90;99.90;;;;;;4855028;29;20451;-82
2021/12/28 00:37:54;;;;;;;116.68;44.72;;;6.00;99.90;;;;;;4847652;29;20070;-82
2021/12/28 00:40:21;;;;;;;129.45;48.70;;;6.00;99.90;;;;;;4833820;29;20045;-82
2021/12/28 00:42:47;;;;;;;133.40;48.20;;;6.00;99.90;;;;;;4803121;29;20052;-82
2021/12/28 00:45:16;;;;;;;136.60;49.07;;;6.10;99.90;;;;;;4822211;29;20042;-82
2021/12/28 00:47:42;;;;;;;138.88;47.88;;;6.10;99.90;;;;;;4823164;29;20045;-83
2021/12/28 00:50:12;;;;;;;130.60;45.43;;;6.10;99.90;;;;;;4801271;29;20078;-83
2021/12/28 00:52:38;;;;;;;118.43;44.65;;;6.10;99.90;;;;;;4822964;29;20045;-83
2021/12/28 00:55:05;;;;;;;138.02;47.08;;;6.10;99.90;;;;;;4811331;29;20164;-83
2021/12/28 00:57:31;;;;;;;137.00;45.88;;;6.10;99.90;;;;;;4813981;29;20708;-83
2021/12/28 00:59:57;;;;;;;136.07;46.07;;;6.10;99.90;;;;;;4800399;29;20073;-83
2021/12/28 01:02:23;;;;;;;166.17;49.20;;;6.10;99.90;;;;;;4822682;29;20387;-83
2021/12/28 01:04:49;;;;;;;151.23;48.47;;;6.10;99.90;;;;;;4814571;29;20078;-83
2021/12/28 01:07:15;;;;;;;158.75;47.33;;;6.10;99.90;;;;;;4806268;29;20538;-83
2021/12/28 01:09:42;;;;;;;153.87;46.67;;;6.10;99.90;;;;;;4808938;29;20037;-83
2021/12/28 01:12:10;;;;;;;178.98;49.78;;;6.10;99.90;;;;;;4826796;29;20048;-83
2021/12/28 01:14:37;;;;;;;204.63;52.60;;;6.10;99.90;;;;;;4826493;29;20056;-83
2021/12/28 01:17:05;;;;;;;223.73;52.90;;;6.10;99.90;;;;;;4824124;29;20058;-83
2021/12/28 01:19:31;;;;;;;226.38;54.15;;;6.10;99.90;;;;;;4829734;29;20129;-83
2021/12/28 01:21:57;;;;;;;197.87;50.83;;;6.10;99.90;;;;;;4816121;29;20041;-83
2021/12/28 01:24:24;;;;;;;189.63;49.38;;;6.10;99.90;;;;;;4827401;29;20046;-83
2021/12/28 01:26:50;;;;;;;221.98;54.15;;;6.10;99.90;;;;;;4837019;29;20041;-83
2021/12/28 01:29:16;;;;;;;227.80;51.47;;;6.10;99.90;;;;;;4816139;29;20053;-83
2021/12/28 01:31:41;;;;;;;205.70;50.30;;;6.10;99.90;;;;;;4809729;29;20049;-83
2021/12/28 01:34:08;;;;;;;239.70;52.90;;;6.10;99.90;;;;;;4843151;29;20045;-83
2021/12/28 01:36:34;;;;;;;209.07;52.03;;;6.10;99.90;;;;;;4830761;29;20042;-83
2021/12/28 01:39:00;;;;;;;217.37;52.47;;;6.20;99.90;;;;;;4831700;29;20041;-83
2021/12/28 01:41:26;;;;;;;339.15;63.20;;;6.20;99.90;;;;;;4843073;29;20428;-83
2021/12/28 01:44:02;;;;;;;229.27;53.17;;;6.20;99.90;;;;;;4841951;29;20097;-83
2021/12/28 01:46:28;;;;;;;;;;;6.20;99.90;;;;;;4835245;29;20132;-83
2021/12/28 01:48:53;;;;;;;236.37;55.07;;;6.20;99.90;;;;;;4826778;29;19970;-83
2021/12/28 01:51:23;;;;;;;241.57;56.80;;;6.20;99.90;;;;;;4808815;29;20033;-83
2021/12/28 01:53:55;;;;;;;198.10;49.70;;;6.30;99.90;;;;;;4832984;29;20125;-83
2021/12/28 01:56:25;;;;;;;259.23;57.03;;;6.30;99.90;;;;;;4845219;29;20054;-83
2021/12/28 01:58:52;;;;;;;324.77;60.80;;;6.30;99.90;;;;;;4831441;29;20053;-83
2021/12/28 02:01:18;;;;;;;283.00;54.67;;;6.30;99.90;;;;;;4824193;29;20041;-83
2021/12/28 02:03:45;;;;;;;340.45;60.70;;;6.30;99.90;;;;;;4830554;29;20045;-83
2021/12/28 02:06:11;;;;;;;267.17;56.42;;;6.30;99.90;;;;;;4815785;29;20062;-83
2021/12/28 02:08:38;;;;;;;363.50;61.45;;;6.20;99.90;;;;;;4825656;29;20057;-83
2021/12/28 02:11:05;;;;;;;334.17;58.95;;;6.20;99.90;;;;;;4828325;29;20045;-83
2021/12/28 02:13:31;;;;;;;220.18;50.13;;;6.20;99.90;;;;;;4834355;29;20045;-83
2021/12/28 02:15:59;;;;;;;360.47;62.97;;;6.20;99.90;;;;;;4814972;29;20061;-83
2021/12/28 02:18:27;;;;;;;253.63;53.53;;;6.20;99.90;;;;;;4832304;29;20070;-83
2021/12/28 02:20:55;;;;;;;238.75;51.88;;;6.30;99.90;;;;;;4833705;29;20045;-83
2021/12/28 02:23:21;;;;;;;278.27;55.78;;;6.30;99.90;;;;;;4814979;29;20428;-83
2021/12/28 02:25:47;;;;;;;217.75;50.97;;;6.30;99.90;;;;;;4823386;29;20042;-83
2021/12/28 02:28:14;;;;;;;209.87;49.97;;;6.30;99.90;;;;;;4828939;29;20089;-83
2021/12/28 02:30:42;;;;;;;208.25;49.05;;;6.40;99.90;;;;;;4843423;29;20074;-83
2021/12/28 02:33:08;;;;;;;181.57;46.22;;;6.40;99.90;;;;;;4827588;29;20200;-83
2021/12/28 02:35:36;;;;;;;220.07;50.28;;;6.40;99.90;;;;;;4817771;29;20091;-83
2021/12/28 02:38:03;;;;;;;159.20;44.92;;;6.50;99.90;;;;;;4833128;29;20042;-82
2021/12/28 02:40:31;;;;;;;182.23;46.08;;;6.40;99.90;;;;;;4818998;29;20053;-82
2021/12/28 02:42:58;;;;;;;171.18;45.35;;;6.50;99.90;;;;;;4852838;29;20096;-82
2021/12/28 02:45:33;;;;;;;167.98;45.85;;;6.50;99.90;;;;;;4824691;29;20046;-82
2021/12/28 02:47:59;;;;;;;177.60;44.53;;;6.50;99.90;;;;;;4831645;29;20050;-82
2021/12/28 02:50:30;;;;;;;170.45;44.75;;;6.60;99.90;;;;;;4832945;29;20061;-82
2021/12/28 02:52:57;;;;;;;168.27;43.78;;;6.60;99.90;;;;;;4830893;29;20081;-82
2021/12/28 02:55:26;;;;;;;153.38;42.95;;;6.60;99.90;;;;;;4828475;29;20045;-82
2021/12/28 02:57:58;;;;;;;148.32;42.00;;;6.60;99.90;;;;;;4847752;29;20073;-82
2021/12/28 03:00:40;;;;;;;165.07;42.88;;;6.60;99.90;;;;;;4830807;29;20050;-82
2021/12/28 03:03:16;;;;;;;151.60;42.78;;;6.60;99.90;;;;;;4843156;29;20177;-82
2021/12/28 03:05:43;;;;;;;;;;;6.60;99.90;;;;;;4838649;29;20042;-82
2021/12/28 03:08:09;;;;;;;142.88;39.92;;;6.60;99.90;;;;;;4826412;29;19920;-82
2021/12/28 03:10:36;;;;;;;136.73;41.08;;;6.60;99.90;;;;;;4846154;29;20761;-82
2021/12/28 03:13:03;;;;;;;149.68;42.83;;;6.60;99.90;;;;;;4806279;29;20050;-82
2021/12/28 03:15:29;;;;;;;163.50;43.88;;;6.60;99.90;;;;;;4832276;29;20062;-82
2021/12/28 03:17:55;;;;;;;138.50;42.70;;;6.60;99.90;;;;;;4817602;29;20076;-82
2021/12/28 03:20:21;;;;;;;141.17;41.37;;;6.60;99.90;;;;;;4832625;29;20299;-82
2021/12/28 03:22:47;;;;;;;146.07;41.78;;;6.60;99.90;;;;;;4815607;29;20482;-82
2021/12/28 03:25:13;;;;;;;139.70;40.10;;;6.60;99.90;;;;;;4817550;29;20045;-82
2021/12/28 03:27:40;;;;;;;126.50;38.53;;;6.50;99.90;;;;;;4832703;29;20067;-82
2021/12/28 03:30:10;;;;;;;116.78;38.17;;;6.50;99.90;;;;;;4831722;29;20125;-82
2021/12/28 03:32:35;;;;;;;111.32;36.50;;;6.60;99.90;;;;;;4848333;29;20064;-82
2021/12/28 03:35:03;;;;;;;114.00;36.63;;;6.60;99.90;;;;;;4814647;29;20053;-82
2021/12/28 03:37:31;;;;;;;108.72;36.05;;;6.60;99.90;;;;;;4827494;29;20054;-82
2021/12/28 03:39:57;;;;;;;106.00;36.45;;;6.60;99.90;;;;;;4826775;29;20411;-82
2021/12/28 03:42:23;;;;;;;100.93;34.50;;;6.60;99.90;;;;;;4825777;29;20041;-82
2021/12/28 03:44:49;;;;;;;122.97;37.47;;;6.60;99.90;;;;;;4806280;29;20114;-82
2021/12/28 03:47:15;;;;;;;133.27;39.43;;;6.60;99.90;;;;;;4829823;29;20033;-82
2021/12/28 03:49:41;;;;;;;105.63;37.87;;;6.60;99.90;;;;;;4808818;29;20041;-82
2021/12/28 03:52:07;;;;;;;127.00;37.90;;;6.60;99.90;;;;;;4813144;29;20038;-82
2021/12/28 03:54:34;;;;;;;120.97;38.72;;;6.60;99.90;;;;;;4817858;29;20088;-82
2021/12/28 03:57:01;;;;;;;120.63;36.88;;;6.60;99.90;;;;;;4827439;29;20045;-82
2021/12/28 03:59:27;;;;;;;135.48;39.85;;;6.60;99.90;;;;;;4818359;29;20056;-82
2021/12/28 04:01:53;;;;;;;142.13;40.97;;;6.60;99.90;;;;;;4822084;29;20046;-82
2021/12/28 04:04:18;;;;;;;124.93;37.97;;;6.60;99.90;;;;;;4817962;29;20516;-82
2021/12/28 04:06:44;;;;;;;123.43;37.90;;;6.60;99.90;;;;;;4831417;29;20577;-82
2021/12/28 04:09:12;;;;;;;125.03;39.40;;;6.60;99.90;;;;;;4832138;29;20045;-82
2021/12/28 04:11:38;;;;;;;142.27;40.50;;;6.60;99.90;;;;;;4808342;29;20042;-82
2021/12/28 04:14:06;;;;;;;136.55;39.67;;;6.70;99.90;;;;;;4816704;29;20042;-82
2021/12/28 04:16:33;;;;;;;156.98;43.47;;;6.60;99.90;;;;;;4822624;29;20045;-82
2021/12/28 04:18:59;;;;;;;142.65;39.90;;;6.60;99.90;;;;;;4828359;29;20042;-82
2021/12/28 04:21:25;;;;;;;132.27;41.08;;;6.70;99.90;;;;;;4844604;29;20623;-82
2021/12/28 04:23:52;;;;;;;142.98;41.95;;;6.60;99.90;;;;;;4807256;29;20050;-82
2021/12/28 04:26:19;;;;;;;145.60;41.28;;;6.60;99.90;;;;;;4809267;29;20041;-82
2021/12/28 04:28:45;;;;;;;137.75;40.35;;;6.60;99.90;;;;;;4809141;29;20062;-82
2021/12/28 04:31:11;;;;;;;134.77;40.97;;;6.60;99.90;;;;;;4830918;29;20136;-82
2021/12/28 04:33:39;;;;;;;139.67;40.07;;;6.60;99.90;;;;;;4814367;29;20290;-82
2021/12/28 04:36:11;;;;;;;124.32;38.47;;;6.60;99.90;;;;;;4841312;29;20048;-82
2021/12/28 04:38:39;;;;;;;106.25;36.25;;;6.60;99.90;;;;;;4844525;29;20106;-82
2021/12/28 04:41:06;;;;;;;117.93;36.85;;;6.60;99.90;;;;;;4844647;29;20084;-82
2021/12/28 04:43:32;;;;;;;115.70;37.13;;;6.50;99.90;;;;;;4835112;29;20132;-82
2021/12/28 04:45:58;;;;;;;102.95;35.08;;;6.50;99.90;;;;;;4845895;29;20399;-82
2021/12/28 04:48:24;;;;;;;106.50;34.13;;;6.50;99.90;;;;;;4840898;29;20041;-83
2021/12/28 04:50:49;;;;;;;100.60;34.40;;;6.40;99.90;;;;;;4820030;29;20048;-83
2021/12/28 04:53:15;;;;;;;84.93;32.10;;;6.40;99.90;;;;;;4812323;29;20097;-83
2021/12/28 04:55:44;;;;;;;89.33;32.03;;;6.50;99.90;;;;;;4817151;29;20052;-83
2021/12/28 04:58:11;;;;;;;83.63;30.90;;;6.40;99.90;;;;;;4823956;29;20054;-83
2021/12/28 05:00:38;;;;;;;89.43;30.85;;;6.40;99.90;;;;;;4844795;29;20041;-83
2021/12/28 05:03:04;;;;;;;75.95;29.38;;;6.40;99.90;;;;;;4814932;29;20072;-83
2021/12/28 05:05:30;;;;;;;83.32;30.35;;;6.40;99.90;;;;;;4825878;29;20398;-83
2021/12/28 05:07:56;;;;;;;78.90;29.75;;;6.40;99.90;;;;;;4837266;29;20046;-83
2021/12/28 05:10:22;;;;;;;82.50;29.87;;;6.40;99.90;;;;;;4832469;29;20141;-83
2021/12/28 05:12:50;;;;;;;83.37;28.70;;;6.40;99.90;;;;;;4798392;29;20290;-83
2021/12/28 05:15:16;;;;;;;88.57;30.02;;;6.40;99.90;;;;;;4817394;29;20047;-83
2021/12/28 05:17:42;;;;;;;77.13;29.63;;;6.40;99.90;;;;;;4813659;29;20539;-83
2021/12/28 05:20:07;;;;;;;78.67;28.17;;;6.40;99.90;;;;;;4801526;29;20038;-83
2021/12/28 05:22:33;;;;;;;75.67;27.30;;;6.30;99.90;;;;;;4843954;29;20614;-83
2021/12/28 05:24:59;;;;;;;78.87;27.23;;;6.30;99.90;;;;;;4817531;29;20050;-83
2021/12/28 05:27:25;;;;;;;80.80;28.83;;;6.30;99.90;;;;;;4818874;29;21348;-83
2021/12/28 05:29:50;;;;;;;85.67;28.60;;;6.30;99.90;;;;;;4821413;29;20038;-83
2021/12/28 05:32:17;;;;;;;76.53;27.30;;;6.30;99.90;;;;;;4818558;29;20079;-83
2021/12/28 05:34:43;;;;;;;70.65;25.85;;;6.30;99.90;;;;;;4818524;29;20451;-83
2021/12/28 05:37:09;;;;;;;67.45;24.65;;;6.20;99.90;;;;;;4820418;29;20042;-83
2021/12/28 05:39:36;;;;;;;62.10;24.07;;;6.30;99.90;;;;;;4819406;29;20060;-83
2021/12/28 05:42:03;;;;;;;62.17;24.98;;;6.20;99.90;;;;;;4844327;29;20694;-83
2021/12/28 05:44:29;;;;;;;62.08;22.20;;;6.20;99.90;;;;;;4833093;29;20510;-83
2021/12/28 05:46:55;;;;;;;55.67;21.77;;;6.30;99.90;;;;;;4831026;29;20038;-83
2021/12/28 05:49:22;;;;;;;71.07;23.67;;;6.20;99.90;;;;;;4826850;29;20042;-82
2021/12/28 05:51:48;;;;;;;63.15;22.83;;;6.30;99.90;;;;;;4831361;29;20044;-82
2021/12/28 05:54:14;;;;;;;58.00;22.73;;;6.40;99.90;;;;;;4811357;29;20046;-82
2021/12/28 05:56:41;;;;;;;62.83;21.77;;;6.30;99.90;;;;;;4838955;29;20466;-82
2021/12/28 05:59:08;;;;;;;59.47;22.02;;;6.30;99.90;;;;;;4828109;29;20045;-82
2021/12/28 06:01:33;;;;;;;56.63;21.65;;;6.40;99.90;;;;;;4828500;29;20057;-82
2021/12/28 06:03:59;;;;;;;47.80;20.17;;;6.40;99.90;;;;;;4816065;29;20045;-82
2021/12/28 06:06:25;;;;;;;52.50;20.33;;;6.40;99.90;;;;;;4847826;29;20045;-82
2021/12/28 06:08:52;;;;;;;52.92;20.10;;;6.30;99.90;;;;;;4818274;29;20122;-82
2021/12/28 06:11:19;;;;;;;65.68;21.15;;;6.30;99.90;;;;;;4801596;29;20128;-82
2021/12/28 06:13:45;;;;;;;51.45;19.48;;;6.40;99.90;;;;;;4827234;29;20049;-82
2021/12/28 06:16:11;;;;;;;55.55;20.45;;;6.40;99.90;;;;;;4827390;29;20050;-82
2021/12/28 06:18:38;;;;;;;54.05;20.77;;;6.40;99.90;;;;;;4837542;29;20085;-82
2021/12/28 06:21:04;;;;;;;54.38;19.75;;;6.40;99.90;;;;;;4818013;29;20045;-82
2021/12/28 06:23:30;;;;;;;50.25;18.00;;;6.40;99.90;;;;;;4811078;29;20079;-82
2021/12/28 06:25:56;;;;;;;57.88;19.85;;;6.40;99.90;;;;;;4842577;29;20081;-82
2021/12/28 06:28:22;;;;;;;50.80;19.20;;;6.40;99.90;;;;;;4825015;29;20058;-82
2021/12/28 06:30:48;;;;;;;44.37;16.93;;;6.40;99.90;;;;;;4831929;29;20162;-82
2021/12/28 06:33:15;;;;;;;48.63;17.50;;;6.50;99.90;;;;;;4815571;29;20485;-82
2021/12/28 06:35:41;;;;;;;45.50;17.23;;;6.50;99.90;;;;;;4810386;29;20057;-82
2021/12/28 06:38:07;;;;;;;43.53;17.15;;;6.40;99.90;;;;;;4815375;29;20049;-82
2021/12/28 06:40:33;;;;;;;48.20;18.73;;;6.50;99.90;;;;;;4816325;29;20045;-82
2021/12/28 06:42:59;;;;;;;45.23;17.33;;;6.50;99.90;;;;;;4819820;29;20422;-82
2021/12/28 06:45:25;;;;;;;46.00;17.08;;;6.50;99.90;;;;;;4826718;29;20483;-83
2021/12/28 06:47:51;;;;;;;35.63;15.20;;;6.50;99.90;;;;;;4801151;29;20137;-83
2021/12/28 06:50:17;;;;;;;45.05;15.68;;;6.50;99.90;;;;;;4830373;29;20041;-83
2021/12/28 06:52:43;;;;;;;44.97;16.53;;;6.50;99.90;;;;;;4817456;29;20617;-82
2021/12/28 06:55:10;;;;;;;41.33;16.17;;;6.60;99.90;;;;;;4814821;29;20301;-82
2021/12/28 06:57:36;;;;;;;43.35;16.38;;;6.50;99.90;;;;;;4829307;29;20443;-83
2021/12/28 07:00:06;;;;;;;42.55;16.02;;;6.60;99.90;;;;;;4825371;29;20088;-83
2021/12/28 07:02:32;;;;;;;41.25;16.70;;;6.60;99.90;;;;;;4846211;29;20080;-83
2021/12/28 07:04:58;;;;;;;39.63;15.93;;;6.50;99.90;;;;;;4799678;29;20085;-83
2021/12/28 07:07:23;;;;;;;40.10;15.97;;;6.60;99.90;;;;;;4813716;29;20533;-83
2021/12/28 07:09:49;;;;;;;43.17;16.77;;;6.60;99.90;;;;;;4816093;29;20036;-83
2021/12/28 07:12:15;;;;;;;42.47;16.57;;;6.60;99.90;;;;;;4790864;29;20049;-83
2021/12/28 07:14:41;;;;;;;50.30;17.60;;;6.60;99.90;;;;;;4798198;29;20049;-82
2021/12/28 07:17:06;;;;;;;44.77;16.00;;;6.60;99.90;;;;;;4815416;29;20419;-82
2021/12/28 07:19:32;;;;;;;47.70;14.50;;;6.60;99.90;;;;;;4816750;29;20495;-82
2021/12/28 07:21:58;;;;;;;41.63;15.77;;;6.60;99.90;;;;;;4799900;29;20098;-82
2021/12/28 07:24:24;;;;;;;36.93;15.30;;;6.60;99.90;;;;;;4810194;29;20041;-82
2021/12/28 07:26:49;;;;;;;38.83;15.40;;;6.70;99.90;;;;;;4807261;29;20053;-82
2021/12/28 07:29:15;;;;;;;38.60;16.10;;;6.70;99.90;;;;;;4811332;29;20057;-82
2021/12/28 07:31:42;;;;;;;37.58;15.43;;;6.70;99.90;;;;;;4822728;29;20060;-82
2021/12/28 07:34:08;;;;;;;38.10;14.43;;;6.70;99.90;;;;;;4812196;29;20083;-82
2021/12/28 07:36:33;;;;;;;33.80;15.10;;;6.70;99.90;;;;;;4808440;29;20041;-83
2021/12/28 07:39:00;;;;;;;34.13;14.27;;;6.70;99.90;;;;;;4811701;29;20053;-83
2021/12/28 07:41:26;;;;;;;36.42;14.82;;;6.70;99.90;;;;;;4825913;29;20052;-83
2021/12/28 07:43:52;;;;;;;32.35;15.27;;;6.70;99.90;;;;;;4820951;29;20046;-83
2021/12/28 07:46:17;;;;;;;39.63;14.53;;;6.60;99.90;;;;;;4810972;29;20060;-83
2021/12/28 07:48:43;;;;;;;41.73;14.70;;;6.60;99.90;;;;;;4827753;29;20046;-83
2021/12/28 07:51:09;;;;;;;32.77;14.53;;;6.60;99.90;;;;;;4828450;29;20497;-83
2021/12/28 07:53:35;;;;;;;34.78;13.77;;;6.60;99.90;;;;;;4824787;29;20094;-83
2021/12/28 07:56:03;;;;;;;39.90;14.40;;;6.60;99.90;;;;;;4828397;29;20537;-83
2021/12/28 07:58:29;;;;;;;34.03;13.48;;;6.70;99.90;;;;;;4804293;29;20487;-82
2021/12/28 08:00:55;;;;;;;35.37;12.93;;;6.60;99.90;;;;;;4812071;29;20088;-82
2021/12/28 08:03:22;;;;;;;33.47;14.10;;;6.70;99.90;;;;;;4804980;29;20049;-82
2021/12/28 08:05:49;;;;;;;31.15;13.30;;;6.70;99.90;;;;;;4802523;29;20056;-82
2021/12/28 08:08:15;;;;;;;32.17;12.68;;;6.70;99.90;;;;;;4832337;29;20117;-82
2021/12/28 08:10:41;;;;;;;36.88;12.40;;;6.70;99.90;;;;;;4831230;29;20129;-82
2021/12/28 08:13:07;;;;;;;30.73;11.20;;;6.80;99.90;;;;;;4820684;29;20064;-82
2021/12/28 08:15:33;;;;;;;27.15;12.90;;;6.80;99.90;;;;;;4801215;29;20448;-82
2021/12/28 08:17:59;;;;;;;33.13;12.77;;;6.80;99.90;;;;;;4829091;29;20080;-82
2021/12/28 08:20:24;;;;;;;35.30;12.60;;;6.80;99.90;;;;;;4799725;29;20160;-82
2021/12/28 08:22:50;;;;;;;30.03;11.93;;;6.90;99.90;;;;;;4824152;29;20052;-82
2021/12/28 08:25:18;;;;;;;31.00;12.63;;;6.90;99.90;;;;;;4822764;29;20053;-82
2021/12/28 08:27:45;;;;;;;30.17;12.32;;;6.90;99.90;;;;;;4822520;29;20058;-82
2021/12/28 08:30:13;;;;;;;28.52;11.85;;;7.00;99.90;;;;;;4805510;29;21674;-82
2021/12/28 08:32:39;;;;;;;40.65;12.82;;;7.00;99.90;;;;;;4828807;29;20491;-82
2021/12/28 08:35:06;;;;;;;36.17;11.77;;;7.00;99.90;;;;;;4814887;29;20073;-82
2021/12/28 08:37:32;;;;;;;28.65;11.45;;;7.10;99.90;;;;;;4836823;29;20128;-82
2021/12/28 08:39:58;;;;;;;29.67;10.82;;;7.10;99.90;;;;;;4815156;29;20056;-81
2021/12/28 08:42:24;;;;;;;35.85;11.55;;;7.10;99.90;;;;;;4797840;29;20045;-82
2021/12/28 08:44:51;;;;;;;28.40;11.27;;;7.10;99.90;;;;;;4812492;29;20049;-82
2021/12/28 08:47:17;;;;;;;30.40;11.70;;;7.10;99.90;;;;;;4824623;29;20038;-82
2021/12/28 08:49:43;;;;;;;25.75;10.90;;;7.20;99.90;;;;;;4844704;29;20573;-82
2021/12/28 08:52:09;;;;;;;28.50;10.15;;;7.20;99.90;;;;;;4819270;29;20413;-82
2021/12/28 08:54:36;;;;;;;31.13;10.90;;;7.20;99.90;;;;;;4828778;29;20102;-82
2021/12/28 08:57:02;;;;;;;28.13;11.70;;;7.20;99.90;;;;;;4855804;29;20042;-82
2021/12/28 08:59:28;;;;;;;27.70;11.70;;;7.20;99.90;;;;;;4844991;29;20045;-82
2021/12/28 09:01:57;;;;;;;33.70;10.90;;;7.20;99.90;;;;;;4810448;29;20141;-82
2021/12/28 09:04:23;;;;;;;28.75;11.38;;;7.20;99.90;;;;;;4815069;29;20029;-82
2021/12/28 09:06:49;;;;;;;26.80;11.17;;;7.20;99.90;;;;;;4806009;29;20037;-82
2021/12/28 09:09:15;;;;;;;26.80;10.38;;;7.20;99.90;;;;;;4809439;29;20828;-82
2021/12/28 09:11:42;;;;;;;25.83;10.50;;;7.20;99.90;;;;;;4811918;29;20068;-82
2021/12/28 09:14:08;;;;;;;25.77;10.20;;;7.30;99.90;;;;;;4817409;29;20073;-82
2021/12/28 09:16:34;;;;;;;28.77;11.20;;;7.30;99.90;;;;;;4807573;29;20109;-82
2021/12/28 09:19:00;;;;;;;32.88;12.20;;;7.30;99.90;;;;;;4836170;29;20054;-82
2021/12/28 09:21:26;;;;;;;31.70;13.00;;;7.40;99.90;;;;;;4809262;29;20038;-82
2021/12/28 09:23:52;;;;;;;31.87;12.70;;;7.40;99.90;;;;;;4824201;29;20074;-82
2021/12/28 09:26:17;;;;;;;31.83;12.87;;;7.40;99.90;;;;;;4822809;29;20129;-82
2021/12/28 09:28:43;;;;;;;30.27;13.57;;;7.40;99.90;;;;;;4816809;29;20282;-82
2021/12/28 09:31:09;;;;;;;28.77;13.60;;;7.40;99.90;;;;;;4795561;29;20041;-82
2021/12/28 09:33:35;;;;;;;35.70;14.07;;;7.40;99.90;;;;;;4823247;29;20049;-82
2021/12/28 09:36:02;;;;;;;29.02;13.20;;;7.40;99.90;;;;;;4833422;29;20500;-82
2021/12/28 09:38:28;;;;;;;32.63;13.73;;;7.40;99.90;;;;;;4826317;29;20046;-82
2021/12/28 09:40:54;;;;;;;31.63;13.50;;;7.40;99.90;;;;;;4808756;29;20109;-82
2021/12/28 09:43:20;;;;;;;34.95;14.13;;;7.40;99.90;;;;;;4806883;29;20136;-82
2021/12/28 09:45:46;;;;;;;38.60;14.15;;;7.40;99.90;;;;;;4796530;29;20063;-83
2021/12/28 09:48:12;;;;;;;32.53;13.47;;;7.40;99.90;;;;;;4830150;29;20038;-82
2021/12/28 09:50:41;;;;;;;31.30;13.43;;;7.40;99.90;;;;;;4811046;29;20331;-82
2021/12/28 09:53:09;;;;;;;34.55;13.77;;;7.40;99.90;;;;;;4831442;29;20057;-82
2021/12/28 09:55:35;;;;;;;33.63;14.05;;;7.30;99.90;;;;;;4844135;29;20041;-82
2021/12/28 09:58:01;;;;;;;32.05;14.32;;;7.40;99.90;;;;;;4845169;29;20822;-82
2021/12/28 10:00:28;;;;;;;33.73;14.27;;;7.40;99.90;;;;;;4811822;29;20058;-82
2021/12/28 10:02:55;;;;;;;33.72;14.52;;;7.40;99.90;;;;;;4828480;29;20072;-82
2021/12/28 10:05:24;;;;;;;31.98;14.88;;;7.40;99.90;;;;;;4836015;29;20489;-82
2021/12/28 10:08:00;;;;;;;34.13;14.65;;;7.40;99.90;;;;;;4836043;29;20049;-82
2021/12/28 10:10:39;;;;;;;29.60;14.70;;;7.50;99.90;;;;;;4818076;29;20041;-83
2021/12/28 10:13:17;;;;;;;37.97;14.30;;;7.50;99.90;;;;;;4838086;29;20037;-83
2021/12/28 10:15:45;;;;;;;35.80;15.80;;;7.50;99.90;;;;;;4836837;29;20152;-82
2021/12/28 10:18:12;;;;;;;34.60;15.48;;;7.50;99.90;;;;;;4835153;29;20048;-82
2021/12/28 10:20:51;;;;;;;34.13;15.70;;;7.60;99.90;;;;;;4829609;29;20045;-82
2021/12/28 10:23:23;;;;;;;34.60;15.07;;;7.60;99.90;;;;;;4832909;29;20041;-81
2021/12/28 10:25:54;;;;;;;31.75;14.10;;;7.60;99.90;;;;;;4834732;29;20121;-81
2021/12/28 10:28:28;;;;;;;30.05;15.23;;;7.60;99.90;;;;;;4836618;29;20056;-81
2021/12/28 10:31:06;;;;;;;29.30;14.75;;;7.60;99.90;;;;;;4837694;29;20052;-81
2021/12/28 10:33:36;;;;;;;32.03;14.38;;;7.70;99.90;;;;;;4841170;29;20049;-81
2021/12/28 10:36:10;;;;;;;30.73;14.13;;;7.70;99.90;;;;;;4839331;29;20037;-81
2021/12/28 10:38:54;;;;;;;29.13;14.93;;;7.80;99.90;;;;;;4843200;29;20076;-80
2021/12/28 10:41:21;;;;;;;33.00;14.98;;;7.80;99.90;;;;;;4836758;29;20048;-81
2021/12/28 10:43:50;;;;;;;30.90;15.63;;;7.80;99.90;;;;;;4833015;29;20064;-80
2021/12/28 10:46:21;;;;;;;37.33;16.83;;;7.80;99.90;;;;;;4837299;29;20065;-80
2021/12/28 10:48:50;;;;;;;26.70;14.35;;;7.80;99.90;;;;;;4831214;29;20371;-80
2021/12/28 10:51:26;;;;;;;32.13;14.23;;;7.80;99.90;;;;;;4834169;29;20041;-80
2021/12/28 10:56:30;;;;;;;31.15;13.55;;;7.80;99.90;;;;;;4848953;29;20050;-80
2021/12/28 10:58:56;;;;;;;28.05;13.27;;;7.90;99.90;;;;;;4844900;29;20064;-81
2021/12/28 11:01:23;;;;;;;22.92;13.02;;;7.90;99.90;;;;;;4843803;29;20052;-80
2021/12/28 11:03:56;;;;;;;24.17;12.73;;;7.90;99.90;;;;;;4831892;29;20044;-80
2021/12/28 11:06:27;;;;;;;20.67;12.77;;;7.90;99.90;;;;;;4826988;29;20049;-80
2021/12/28 11:08:57;;;;;;;24.10;11.98;;;7.90;99.90;;;;;;4842931;29;20529;-80
2021/12/28 11:11:24;;;;;;;20.30;11.20;;;7.90;99.90;;;;;;4833222;29;20045;-81
2021/12/28 11:14:15;;;;;;;19.45;10.75;;;8.00;99.90;;;;;;4835399;29;20101;-81
2021/12/28 11:16:47;;;;;;;18.42;10.43;;;8.00;99.90;;;;;;4833843;29;20089;-81
2021/12/28 11:19:13;;;;;;;15.27;9.50;;;8.00;99.90;;;;;;4821390;29;21001;-81
2021/12/28 11:21:50;;;;;;;17.10;9.20;;;8.00;99.90;;;;;;4799977;29;20066;-81
2021/12/28 11:24:17;;;;;;;16.10;9.40;;;8.10;99.90;;;;;;4863692;29;20042;-82
2021/12/28 11:26:47;;;;;;;13.63;8.70;;;8.10;99.90;;;;;;4829750;29;20110;-82
2021/12/28 11:29:16;;;;;;;12.68;7.78;;;8.10;99.90;;;;;;4830681;29;20456;-83
2021/12/28 11:31:50;;;;;;;14.27;7.70;;;8.10;99.90;;;;;;4834545;29;20041;-83
2021/12/28 11:34:21;;;;;;;11.63;7.28;;;8.10;99.90;;;;;;4831298;29;20042;-82
2021/12/28 11:36:58;;;;;;;11.98;7.35;;;8.10;99.90;;;;;;4845918;29;20053;-83
2021/12/28 11:39:29;;;;;;;9.75;6.90;;;8.10;99.90;;;;;;4834007;29;20053;-83
2021/12/28 11:41:58;;;;;;;11.20;7.45;;;8.10;99.90;;;;;;4839527;29;20082;-83
2021/12/28 11:44:25;;;;;;;13.68;7.72;;;8.10;99.90;;;;;;4823695;29;20056;-84
2021/12/28 11:46:54;;;;;;;10.40;6.85;;;8.10;99.90;;;;;;4819008;29;20045;-83
2021/12/28 11:49:25;;;;;;;10.40;6.75;;;8.10;99.90;;;;;;4829336;29;20127;-83
2021/12/28 11:51:52;;;;;;;13.23;8.00;;;8.10;99.90;;;;;;4832491;29;20193;-83
2021/12/28 11:54:21;;;;;;;13.27;7.57;;;8.20;99.90;;;;;;4824423;29;20049;-83
2021/12/28 11:56:52;;;;;;;12.45;7.15;;;8.20;99.90;;;;;;4828457;29;20105;-83
2021/12/28 11:59:20;;;;;;;11.93;7.60;;;8.20;99.90;;;;;;4821348;29;20045;-84
2021/12/28 12:01:52;;;;;;;15.77;8.25;;;8.20;99.90;;;;;;4827725;29;20041;-83
2021/12/28 12:04:30;;;;;;;15.85;7.63;;;8.20;99.90;;;;;;4838005;29;20076;-82
2021/12/28 12:07:09;;;;;;;15.73;7.43;;;8.30;99.90;;;;;;4848567;29;20076;-83
2021/12/28 12:09:57;;;;;;;13.95;7.97;;;8.30;99.90;;;;;;4830899;29;20120;-83
2021/12/28 12:12:23;;;;;;;12.38;7.47;;;8.30;99.90;;;;;;4830104;29;20128;-83
2021/12/28 12:14:56;;;;;;;12.10;7.63;;;8.30;99.90;;;;;;4836983;29;20053;-83
2021/12/28 12:17:31;;;;;;;12.35;7.90;;;8.30;99.90;;;;;;4827551;29;20045;-83
2021/12/28 12:20:20;;;;;;;13.57;8.00;;;8.30;99.90;;;;;;4829560;29;20053;-83
2021/12/28 12:22:50;;;;;;;14.07;7.90;;;8.30;99.90;;;;;;4841577;29;20056;-83
2021/12/28 12:25:17;;;;;;;12.00;7.40;;;8.40;99.90;;;;;;4831344;29;20073;-82
2021/12/28 12:28:01;;;;;;;13.75;7.97;;;8.40;99.90;;;;;;4822767;29;20641;-82
2021/12/28 12:30:27;;;;;;;13.90;7.70;;;8.40;99.90;;;;;;4848015;29;20053;-82
2021/12/28 12:35:31;;;;;;;11.48;6.85;;;8.40;99.90;;;;;;4840882;29;20057;-82
2021/12/28 12:37:58;;;;;;;11.52;7.20;;;8.40;99.90;;;;;;4828174;29;20799;-82
2021/12/28 12:41:02;;;;;;;12.38;7.15;;;8.40;99.90;;;;;;4831112;29;20056;-83
2021/12/28 12:43:39;;;;;;;12.88;7.22;;;8.50;99.90;;;;;;4821353;29;20049;-83
2021/12/28 12:46:32;;;;;;;10.18;7.38;;;8.40;99.90;;;;;;4820966;29;20556;-83